Aviation Digital Data Service (ADDS)

Output produced by METARs form (1744 UTC 18 September 2014)
found at http://www.aviationweather.gov/adds/metars/
 
KIPT 181654Z VRB04KT 10SM SCT040 21/07 A3003 RMK AO2 SLP169 T02060067
KIPT 181554Z VRB04KT 10SM SCT040 18/09 A3004 RMK AO2 SLP171 T01830089
KIPT 181454Z 28004KT 10SM CLR 16/10 A3004 RMK AO2 SLP174 T01560100 50000
KIPT 181416Z 24005KT 10SM SCT004 13/10 A3005 RMK AO2 T01280100
KIPT 181403Z 27005KT 3SM BR BKN004 12/10 A3005 RMK AO2 T01220100
KIPT 181354Z 30005KT 2SM BR OVC004 12/10 A3005 RMK AO2 SLP177 T01170100
KIPT 181351Z 27004KT 2SM BR OVC004 12/10 A3005 RMK AO2
KIPT 181334Z 29005KT 1 1/2SM BR OVC003 11/09 A3005 RMK AO2 T01110094
KIPT 181254Z 25006KT 3/4SM BR OVC002 11/09 A3004 RMK AO2 SLP174 T01060094
KIPT 181154Z 30004KT 1/2SM FG VV003 10/09 A3004 RMK AO2 SLP172 T01000089 10100 20089 53015
KIPT 181125Z 32005KT 1/2SM FG OVC002 09/08 A3003 RMK AO2 T00940083
KIPT 181054Z 33004KT 1SM BR OVC003 10/08 A3002 RMK AO2 SLP166 T01000083
KIPT 181033Z 00000KT 2SM BR OVC003 10/08 A3002 RMK AO2 T01000083
KIPT 180954Z AUTO 00000KT 10SM OVC004 10/08 A3001 RMK AO2 SLP161 T01000078
KIPT 180854Z AUTO 34003KT 10SM OVC004 09/08 A2999 RMK AO2 SLP156 T00940078 53004
KIPT 180841Z AUTO 34003KT 10SM OVC004 10/08 A2999 RMK AO2 T01000078
KIPT 180754Z AUTO 00000KT 10SM BKN005 09/08 A2998 RMK AO2 SLP151 T00940078
KIPT 180752Z AUTO 00000KT 10SM BKN005 09/08 A2998 RMK AO2
KIPT 180724Z AUTO 00000KT 10SM FEW005 BKN065 09/08 A2998 RMK AO2 T00940078
KIPT 180654Z AUTO 29003KT 10SM CLR 09/07 A2998 RMK AO2 SLP152 T00890072
KIPT 180554Z AUTO 00000KT 10SM CLR 10/08 A2998 RMK AO2 SLP152 T01000083 10156 20094 50000
KIPT 180454Z AUTO 00000KT 10SM CLR 11/09 A2998 RMK AO2 SLP152 T01060089 402220083
KIPT 180354Z AUTO 00000KT 10SM FEW075 11/09 A2999 RMK AO2 SLP155 T01110089
KIPT 180254Z AUTO 00000KT 10SM BKN070 12/09 A2998 RMK AO2 SLP153 T01220094 53005
KIPT 180154Z 00000KT 10SM CLR 12/09 A2997 RMK AO2 SLP150 T01220094
KIPT 180054Z 00000KT 10SM FEW060 FEW080 14/10 A2997 RMK AO2 SLP150 T01390100
KIPT 172354Z 00000KT 10SM SCT075 15/10 A2997 RMK AO2 SLP148 T01500100 10222 20150 53002
KIPT 172254Z 01003KT 10SM CLR 18/08 A2996 RMK AO2 SLP145 T01780083
KIPT 172154Z 19003KT 10SM FEW060 20/09 A2996 RMK AO2 SLP145 T02000089
KIPT 172054Z 23006KT 10SM FEW060 21/08 A2996 RMK AO2 SLP145 T02060078 56010
KIPT 171954Z 26008KT 10SM SCT060 22/06 A2996 RMK AO2 SLP144 T02220056
KIPT 171854Z 24004KT 10SM BKN060 20/06 A2997 RMK AO2 SLP149 T02000056
KIPT 171754Z 26007KT 10SM SCT045 21/06 A2999 RMK AO2 SLP156 T02060061 10211 20089 56029
KIPT 171654Z 00000KT 10SM SCT045 18/07 A3002 RMK AO2 SLP165 T01830072
KIPT 171554Z 00000KT 10SM CLR 16/09 A3005 RMK AO2 SLP175 T01560094
KIPT 171454Z 00000KT 10SM SCT004 13/09 A3008 RMK AO2 SLP186 T01280089 58003
KIPT 171434Z 00000KT 10SM SCT004 12/09 A3008 RMK AO2 T01170089
KIPT 171423Z 00000KT 5SM BR BKN004 10/09 A3009 RMK AO2 T01000089
KIPT 171354Z 27004KT 2SM BR OVC004 10/08 A3009 RMK AO2 SLP191 T01000083
KIPT 171347Z 31005KT 2SM BR OVC004 10/08 A3009 RMK AO2 T01000083
KIPT 171254Z 25005KT 1SM BR OVC002 09/08 A3009 RMK AO2 SLP189 T00940078
KIPT 171154Z 31005KT 1 1/2SM BR OVC003 09/07 A3009 RMK AO2 SLP189 T00890072 10100 20083 52005
KIPT 171054Z 31005KT 1 1/2SM BR OVC002 08/07 A3008 RMK AO2 SLP186 T00830072
KIPT 171049Z 30004KT 3SM BR OVC002 09/08 A3008 RMK AO2
KIPT 171024Z AUTO 31005KT 1 3/4SM BR OVC002 09/08 A3008 RMK AO2 T00890078
KIPT 170954Z AUTO 30005KT 3SM BR OVC002 09/08 A3008 RMK AO2 SLP184 T00890078
KIPT 170854Z AUTO 32004KT 9SM OVC002 09/08 A3007 RMK AO2 SLP182 T00940083 58000
KIPT 170754Z AUTO 33006KT 10SM OVC003 09/08 A3007 RMK AO2 SLP182 T00940078
KIPT 170654Z AUTO 34004KT 10SM OVC004 09/08 A3007 RMK AO2 SLP182 T00940078
KIPT 170630Z AUTO 00000KT 10SM BKN005 09/08 A3007 RMK AO2 T00940078
KIPT 170613Z AUTO 31003KT 10SM SCT004 09/08 A3007 RMK AO2 T00940078
KIPT 170601Z AUTO 00000KT 10SM BKN005 10/08 A3007 RMK AO2 CIG 002V006 T01000083
KIPT 170554Z AUTO 00000KT 10SM BKN003 10/08 A3007 RMK AO2 CIG 002V006 SLP182 T01000078 10139 20094 53005